Time;durP1;ratioP1;P1;durP2;ratioP2;P2;SDS_P1;SDS_P2;PMS_P1;PMS_P2;Temp;Humidity;BMP_temperature;BMP_pressure;BME280_temperature;BME280_humidity;BME280_pressure;Samples;Min_cycle;Max_cycle;Signal;HPM_P1;HPM_P2
2021/06/23 00:02:15;;;;;;;16.45;3.83;;;14.10;75.80;;;;;;5066750;28;20106;-77
2021/06/23 00:04:42;;;;;;;12.02;3.08;;;14.10;76.00;;;;;;5058372;28;20087;-77
2021/06/23 00:07:08;;;;;;;11.82;3.22;;;14.10;76.40;;;;;;5055559;28;20477;-77
2021/06/23 00:09:33;;;;;;;11.82;2.90;;;14.00;76.40;;;;;;5048222;28;20029;-77
2021/06/23 00:11:59;;;;;;;9.85;3.22;;;14.00;76.10;;;;;;5068175;28;20697;-78
2021/06/23 00:14:25;;;;;;;9.15;3.20;;;14.00;76.20;;;;;;5052804;28;20085;-78
2021/06/23 00:16:51;;;;;;;12.90;3.22;;;14.00;76.50;;;;;;5063633;28;20049;-78
2021/06/23 00:19:17;;;;;;;11.55;3.38;;;14.00;76.60;;;;;;5066025;28;20403;-77
2021/06/23 00:21:42;;;;;;;8.95;2.80;;;14.00;76.90;;;;;;5065033;28;20029;-78
2021/06/23 00:24:08;;;;;;;11.98;3.50;;;14.00;76.90;;;;;;5065164;28;20196;-77
2021/06/23 00:26:37;;;;;;;11.75;3.30;;;13.90;76.70;;;;;;5060114;28;20601;-78
2021/06/23 00:29:04;;;;;;;14.60;3.47;;;13.90;77.00;;;;;;5063712;28;20112;-78
2021/06/23 00:31:30;;;;;;;9.73;2.90;;;14.00;77.00;;;;;;5065339;28;20032;-79
2021/06/23 00:33:57;;;;;;;8.02;2.63;;;14.00;77.00;;;;;;5066521;28;20041;-77
2021/06/23 00:36:23;;;;;;;11.40;3.42;;;13.90;77.00;;;;;;5064786;28;20079;-78
2021/06/23 00:38:49;;;;;;;9.63;2.67;;;13.90;77.10;;;;;;5064663;28;20025;-77
2021/06/23 00:41:19;;;;;;;11.82;3.20;;;13.90;77.10;;;;;;5061174;28;20044;-78
2021/06/23 00:43:46;;;;;;;9.77;2.90;;;13.80;77.10;;;;;;5064198;28;20052;-78
2021/06/23 00:46:12;;;;;;;12.32;3.35;;;13.90;77.00;;;;;;5075547;28;20038;-79
2021/06/23 00:48:40;;;;;;;10.68;2.95;;;13.90;77.20;;;;;;5089984;28;20028;-80
2021/06/23 00:51:06;;;;;;;13.90;3.00;;;13.90;77.10;;;;;;5090634;28;20058;-79
2021/06/23 00:53:32;;;;;;;16.98;3.40;;;13.80;77.30;;;;;;5089463;28;20047;-78
2021/06/23 00:55:58;;;;;;;11.82;3.03;;;13.80;77.30;;;;;;5057359;28;20037;-78
2021/06/23 00:58:27;;;;;;;9.27;2.70;;;13.80;77.40;;;;;;5057590;28;20033;-78
2021/06/23 01:00:55;;;;;;;13.10;3.17;;;13.80;77.40;;;;;;5064917;28;20029;-78
2021/06/23 01:03:22;;;;;;;12.32;3.13;;;13.80;77.40;;;;;;5068405;28;20052;-78
2021/06/23 01:05:48;;;;;;;10.05;2.67;;;13.80;77.60;;;;;;5047008;28;20032;-78
2021/06/23 01:08:14;;;;;;;12.82;3.45;;;13.80;77.70;;;;;;5071115;28;20033;-78
2021/06/23 01:10:39;;;;;;;11.25;3.45;;;13.80;77.90;;;;;;5067734;28;20047;-79
2021/06/23 01:13:05;;;;;;;13.98;4.07;;;13.80;78.00;;;;;;5063366;28;20139;-77
2021/06/23 01:15:33;;;;;;;13.00;3.33;;;13.80;78.20;;;;;;5051425;28;20372;-79
2021/06/23 01:18:00;;;;;;;11.20;4.10;;;13.80;78.30;;;;;;5036607;28;20099;-77
2021/06/23 01:20:26;;;;;;;13.55;3.63;;;13.80;78.60;;;;;;5057230;28;20044;-77
2021/06/23 01:22:52;;;;;;;10.77;3.72;;;13.80;79.20;;;;;;5066571;28;20032;-77
2021/06/23 01:25:17;;;;;;;13.00;3.65;;;13.70;79.60;;;;;;5069551;28;20116;-79
2021/06/23 01:27:45;;;;;;;14.40;3.50;;;13.70;79.70;;;;;;5069754;28;20040;-77
2021/06/23 01:30:13;;;;;;;11.77;3.40;;;13.70;79.80;;;;;;5064725;28;20116;-77
2021/06/23 01:32:39;;;;;;;12.75;3.78;;;13.60;80.00;;;;;;5050924;28;20450;-79
2021/06/23 01:35:06;;;;;;;14.52;3.35;;;13.60;80.40;;;;;;5063378;28;20029;-77
2021/06/23 01:37:32;;;;;;;12.50;3.67;;;13.60;80.30;;;;;;5065332;28;20494;-78
2021/06/23 01:40:00;;;;;;;7.82;3.25;;;13.60;80.60;;;;;;5065709;28;20025;-78
2021/06/23 01:42:27;;;;;;;11.75;3.85;;;13.60;80.80;;;;;;5068238;28;20032;-78
2021/06/23 01:44:53;;;;;;;10.27;3.72;;;13.60;81.00;;;;;;5063740;28;20037;-78
2021/06/23 01:47:19;;;;;;;17.83;3.95;;;13.60;81.10;;;;;;5047612;28;20075;-77
2021/06/23 01:49:45;;;;;;;10.02;3.60;;;13.50;81.30;;;;;;5067088;28;20375;-78
2021/06/23 01:52:11;;;;;;;11.05;3.28;;;13.60;81.20;;;;;;5046405;28;20120;-78
2021/06/23 01:54:41;;;;;;;14.82;3.75;;;13.50;81.50;;;;;;5067488;28;20109;-78
2021/06/23 01:57:10;;;;;;;13.50;3.90;;;13.50;81.60;;;;;;5049043;28;20127;-78
2021/06/23 01:59:36;;;;;;;12.77;3.75;;;13.40;81.80;;;;;;5054383;28;20128;-79
2021/06/23 02:02:26;;;;;;;10.98;3.90;;;13.40;82.00;;;;;;5058015;28;20036;-79
2021/06/23 02:05:03;;;;;;;18.48;4.45;;;13.40;82.30;;;;;;5048801;28;20091;-78
2021/06/23 02:07:52;;;;;;;10.63;4.28;;;13.30;81.80;;;;;;5058754;28;20029;-77
2021/06/23 02:10:44;;;;;;;11.93;4.35;;;13.30;82.10;;;;;;5066869;28;20496;-77
2021/06/23 02:13:28;;;;;;;10.80;3.90;;;13.30;82.00;;;;;;5064099;28;20044;-78
2021/06/23 02:16:04;;;;;;;10.90;4.10;;;13.30;81.80;;;;;;5057976;28;20037;-78
2021/06/23 02:18:29;;;;;;;11.95;4.68;;;13.30;81.20;;;;;;5066314;28;20510;-78
2021/06/23 02:20:58;;;;;;;11.55;4.00;;;13.30;81.20;;;;;;5065038;28;20029;-78
2021/06/23 02:23:24;;;;;;;12.30;3.95;;;13.30;80.90;;;;;;5046917;28;20151;-78
2021/06/23 02:25:50;;;;;;;13.75;4.47;;;13.30;81.00;;;;;;5067111;28;20471;-78
2021/06/23 02:28:17;;;;;;;9.85;4.07;;;13.30;81.00;;;;;;5061914;28;20033;-77
2021/06/23 02:30:43;;;;;;;15.52;4.18;;;13.30;80.80;;;;;;5061185;28;20029;-78
2021/06/23 02:33:10;;;;;;;12.88;4.43;;;13.30;80.30;;;;;;5056468;28;20048;-78
2021/06/23 02:35:38;;;;;;;11.63;4.00;;;13.30;80.30;;;;;;5064676;28;20036;-78
2021/06/23 02:38:05;;;;;;;13.20;4.15;;;13.30;80.20;;;;;;5068719;28;20032;-78
2021/06/23 02:40:32;;;;;;;13.50;4.70;;;13.30;80.00;;;;;;5067874;28;20109;-78
2021/06/23 02:42:58;;;;;;;14.20;4.30;;;13.30;79.90;;;;;;5065626;28;20115;-79
2021/06/23 02:45:25;;;;;;;11.90;4.38;;;13.30;79.80;;;;;;5066437;28;20127;-78
2021/06/23 02:47:51;;;;;;;12.40;4.18;;;13.30;79.70;;;;;;5050825;28;20494;-78
2021/06/23 02:50:16;;;;;;;11.93;4.43;;;13.30;79.90;;;;;;5049179;28;20111;-78
2021/06/23 02:52:43;;;;;;;12.27;4.25;;;13.30;79.80;;;;;;5047839;28;20472;-79
2021/06/23 02:55:09;;;;;;;10.60;4.25;;;13.30;79.80;;;;;;5064832;28;20076;-78
2021/06/23 02:57:35;;;;;;;12.82;4.90;;;13.30;80.00;;;;;;5062666;28;20379;-77
2021/06/23 03:00:02;;;;;;;13.20;4.53;;;13.30;80.10;;;;;;5060904;28;20041;-78
2021/06/23 03:02:28;;;;;;;12.15;4.07;;;13.30;80.20;;;;;;5056144;28;20083;-78
2021/06/23 03:04:54;;;;;;;10.52;4.35;;;13.30;80.50;;;;;;5049618;28;20071;-78
2021/06/23 03:07:19;;;;;;;13.93;5.07;;;13.30;80.60;;;;;;5066143;28;20486;-78
2021/06/23 03:09:46;;;;;;;13.38;4.30;;;13.30;80.30;;;;;;5060797;28;20036;-78
2021/06/23 03:12:13;;;;;;;13.35;4.80;;;13.30;80.10;;;;;;5066847;28;20557;-78
2021/06/23 03:14:39;;;;;;;11.32;4.75;;;13.30;80.60;;;;;;5044598;28;20028;-78
2021/06/23 03:17:05;;;;;;;9.48;4.28;;;13.30;80.70;;;;;;5058105;28;20053;-78
2021/06/23 03:19:32;;;;;;;13.98;5.35;;;13.30;80.70;;;;;;5063890;28;20035;-78
2021/06/23 03:22:04;;;;;;;13.40;5.55;;;13.30;80.60;;;;;;5067716;28;20111;-78
2021/06/23 03:24:29;;;;;;;11.55;4.97;;;13.30;80.70;;;;;;5043720;28;20039;-80
2021/06/23 03:26:55;;;;;;;14.63;5.03;;;13.30;80.70;;;;;;5064597;28;20032;-78
2021/06/23 03:29:23;;;;;;;12.57;5.15;;;13.30;80.90;;;;;;5066577;28;20039;-79
2021/06/23 03:31:49;;;;;;;16.27;5.55;;;13.30;81.00;;;;;;5060465;28;20041;-78
2021/06/23 03:34:15;;;;;;;10.20;5.32;;;13.30;81.10;;;;;;5060349;28;20048;-78
2021/06/23 03:36:41;;;;;;;12.75;5.25;;;13.40;81.20;;;;;;5064391;28;20037;-78
2021/06/23 03:39:06;;;;;;;14.27;5.78;;;13.30;81.20;;;;;;5067139;28;20031;-78
2021/06/23 03:41:32;;;;;;;12.27;5.38;;;13.30;81.20;;;;;;5049020;28;20028;-78
2021/06/23 03:43:58;;;;;;;13.25;5.82;;;13.30;81.10;;;;;;5046731;28;20123;-78
2021/06/23 03:46:24;;;;;;;12.85;5.43;;;13.30;81.30;;;;;;5065462;28;20444;-78
2021/06/23 03:48:49;;;;;;;12.25;5.45;;;13.30;81.10;;;;;;5067318;28;20032;-77
2021/06/23 03:51:15;;;;;;;11.35;4.97;;;13.30;81.30;;;;;;5067409;28;20043;-78
2021/06/23 03:53:41;;;;;;;16.55;5.90;;;13.30;81.30;;;;;;5063373;28;20430;-78
2021/06/23 03:56:07;;;;;;;15.73;6.53;;;13.20;81.70;;;;;;5059389;28;20383;-78
2021/06/23 03:58:32;;;;;;;13.32;5.50;;;13.30;81.60;;;;;;5059445;28;20040;-79
2021/06/23 04:00:58;;;;;;;15.25;5.45;;;13.30;81.70;;;;;;5058105;28;20082;-78
2021/06/23 04:03:24;;;;;;;15.23;5.80;;;13.20;81.70;;;;;;5058621;28;20044;-78
2021/06/23 04:05:50;;;;;;;12.57;4.93;;;13.20;81.70;;;;;;5060421;28;20037;-78
2021/06/23 04:08:16;;;;;;;14.95;5.80;;;13.20;81.70;;;;;;5061405;28;20022;-78
2021/06/23 04:10:41;;;;;;;20.02;5.80;;;13.20;81.90;;;;;;5065176;28;20110;-78
2021/06/23 04:13:07;;;;;;;12.55;5.63;;;13.30;82.00;;;;;;5063529;28;20163;-79
2021/06/23 04:15:32;;;;;;;12.38;5.00;;;13.30;82.10;;;;;;5064325;28;20064;-78
2021/06/23 04:17:58;;;;;;;15.80;5.25;;;13.30;82.10;;;;;;5063401;28;20403;-78
2021/06/23 04:20:24;;;;;;;15.45;5.68;;;13.30;82.30;;;;;;5046958;28;20090;-78
2021/06/23 04:22:49;;;;;;;13.27;5.78;;;13.30;82.00;;;;;;5064815;28;20526;-78
2021/06/23 04:25:15;;;;;;;15.18;5.82;;;13.30;82.20;;;;;;5065517;28;20120;-77
2021/06/23 04:27:41;;;;;;;16.25;6.07;;;13.30;82.30;;;;;;5070294;28;20057;-77
2021/06/23 04:30:10;;;;;;;16.35;6.05;;;13.30;82.30;;;;;;5050090;28;20024;-78
2021/06/23 04:32:36;;;;;;;19.88;6.78;;;13.30;82.20;;;;;;5052365;28;20113;-76
2021/06/23 04:35:05;;;;;;;11.88;5.95;;;13.30;82.20;;;;;;5061830;28;20471;-78
2021/06/23 04:37:32;;;;;;;11.02;6.18;;;13.30;82.40;;;;;;5067541;28;20230;-77
2021/06/23 04:39:57;;;;;;;17.77;6.65;;;13.30;82.50;;;;;;5067348;28;20115;-79
2021/06/23 04:42:23;;;;;;;15.48;5.97;;;13.30;82.60;;;;;;5068255;28;20435;-77
2021/06/23 04:44:49;;;;;;;16.45;6.15;;;13.40;82.30;;;;;;5053734;28;20035;-78
2021/06/23 04:47:14;;;;;;;18.13;7.20;;;13.40;82.30;;;;;;5066601;28;20029;-79
2021/06/23 04:49:40;;;;;;;19.63;7.32;;;13.50;82.40;;;;;;5067100;28;20091;-79
2021/06/23 04:52:06;;;;;;;17.15;6.65;;;13.40;82.20;;;;;;5068386;28;20047;-78
2021/06/23 04:54:31;;;;;;;13.15;6.40;;;13.50;82.50;;;;;;5051225;28;20029;-78
2021/06/23 04:56:57;;;;;;;14.32;6.53;;;13.50;82.50;;;;;;5066696;28;20433;-78
2021/06/23 04:59:22;;;;;;;16.75;7.20;;;13.50;82.40;;;;;;5063816;28;20028;-79
2021/06/23 05:01:48;;;;;;;13.48;7.15;;;13.60;82.40;;;;;;5065834;28;20090;-78
2021/06/23 05:04:14;;;;;;;12.52;6.43;;;13.60;82.60;;;;;;5062037;28;20380;-78
2021/06/23 05:06:40;;;;;;;17.70;6.40;;;13.70;82.30;;;;;;5059980;28;20036;-78
2021/06/23 05:09:06;;;;;;;19.92;7.32;;;13.80;82.30;;;;;;5041885;28;20425;-78
2021/06/23 05:11:33;;;;;;;12.98;6.72;;;13.80;82.00;;;;;;5069494;28;20483;-79
2021/06/23 05:14:00;;;;;;;12.93;6.63;;;13.80;81.90;;;;;;5066374;28;20039;-79
2021/06/23 05:16:26;;;;;;;15.82;6.97;;;13.80;81.90;;;;;;5067070;28;20043;-78
2021/06/23 05:18:54;;;;;;;15.52;7.13;;;13.90;82.00;;;;;;5047542;28;20044;-78
2021/06/23 05:21:20;;;;;;;15.40;7.18;;;14.00;81.80;;;;;;5049318;28;20040;-78
2021/06/23 05:23:46;;;;;;;14.52;7.50;;;14.00;82.10;;;;;;5066813;28;20472;-80
2021/06/23 05:26:12;;;;;;;12.68;6.75;;;14.10;81.80;;;;;;5067338;28;20075;-80
2021/06/23 05:28:37;;;;;;;15.52;7.55;;;14.10;81.80;;;;;;5066850;28;20043;-78
2021/06/23 05:31:03;;;;;;;18.02;7.45;;;14.10;81.80;;;;;;5067103;28;20131;-79
2021/06/23 05:33:28;;;;;;;12.80;7.90;;;14.20;81.50;;;;;;5066924;28;20116;-77
2021/06/23 05:35:54;;;;;;;20.20;8.15;;;14.20;80.40;;;;;;5068491;28;20443;-74
2021/06/23 05:38:20;;;;;;;17.80;7.65;;;14.30;80.60;;;;;;5068711;28;20128;-74
2021/06/23 05:40:46;;;;;;;13.35;7.68;;;14.40;80.50;;;;;;5070270;28;20040;-78
2021/06/23 05:43:12;;;;;;;16.58;8.55;;;14.40;80.10;;;;;;5071713;28;20041;-78
2021/06/23 05:45:38;;;;;;;20.10;9.15;;;14.40;80.40;;;;;;5064589;28;20028;-74
2021/06/23 05:48:05;;;;;;;12.18;7.63;;;14.30;79.90;;;;;;5067821;28;20468;-74
2021/06/23 05:50:31;;;;;;;16.58;8.77;;;14.30;80.40;;;;;;5067228;28;20033;-74
2021/06/23 05:52:56;;;;;;;16.50;8.82;;;14.40;79.90;;;;;;5060977;28;20039;-74
2021/06/23 05:55:22;;;;;;;15.25;9.70;;;14.40;79.70;;;;;;5063594;28;20032;-75
2021/06/23 05:57:52;;;;;;;17.73;8.93;;;14.10;79.20;;;;;;5047600;28;20037;-74
2021/06/23 06:00:20;;;;;;;17.42;10.02;;;14.10;79.20;;;;;;5063241;28;20120;-74
2021/06/23 06:02:46;;;;;;;18.52;9.70;;;14.20;78.50;;;;;;5058136;28;20029;-85
2021/06/23 06:05:13;;;;;;;19.20;10.52;;;14.20;79.20;;;;;;5068287;28;20028;-74
2021/06/23 06:07:38;;;;;;;16.48;9.95;;;14.10;78.60;;;;;;5068906;28;20048;-75
2021/06/23 06:10:04;;;;;;;19.33;10.40;;;14.30;78.80;;;;;;5067673;28;20327;-76
2021/06/23 06:12:30;;;;;;;23.10;11.10;;;14.40;78.50;;;;;;5069564;28;20049;-73
2021/06/23 06:14:55;;;;;;;23.17;11.30;;;14.40;78.40;;;;;;5065916;28;20036;-73
2021/06/23 06:17:21;;;;;;;18.38;10.60;;;14.50;78.20;;;;;;5070871;28;20080;-73
2021/06/23 06:19:46;;;;;;;19.20;10.73;;;14.60;78.90;;;;;;5051066;28;20029;-75
2021/06/23 06:22:12;;;;;;;16.27;10.10;;;14.50;77.80;;;;;;5048432;28;20368;-75
2021/06/23 06:24:38;;;;;;;15.95;10.23;;;14.50;77.30;;;;;;5064120;28;20037;-72
2021/06/23 06:27:04;;;;;;;15.95;10.95;;;14.50;77.20;;;;;;5061833;28;20036;-72
2021/06/23 06:29:29;;;;;;;21.05;11.52;;;14.50;77.00;;;;;;5070253;28;20025;-72
2021/06/23 06:31:55;;;;;;;17.50;11.20;;;14.40;76.70;;;;;;5063119;28;20040;-72
2021/06/23 06:34:21;;;;;;;15.43;11.13;;;14.40;76.60;;;;;;5060820;28;20036;-72
2021/06/23 06:36:46;;;;;;;19.05;11.10;;;14.50;77.20;;;;;;5070738;28;20487;-73
2021/06/23 06:39:12;;;;;;;17.48;11.77;;;14.60;77.30;;;;;;5067909;28;20033;-71
2021/06/23 06:41:38;;;;;;;18.85;11.15;;;14.90;77.10;;;;;;5065227;28;20032;-71
2021/06/23 06:44:04;;;;;;;19.00;12.00;;;15.00;76.40;;;;;;5046537;28;20072;-74
2021/06/23 06:46:29;;;;;;;15.98;10.40;;;15.00;75.80;;;;;;5072101;28;20036;-73
2021/06/23 06:48:55;;;;;;;18.77;10.23;;;15.10;75.20;;;;;;5071872;28;20029;-80
2021/06/23 06:51:20;;;;;;;21.27;12.10;;;15.10;74.80;;;;;;5067902;28;20033;-72
2021/06/23 06:53:46;;;;;;;15.82;10.70;;;15.00;74.60;;;;;;5070480;28;20041;-78
2021/06/23 06:56:12;;;;;;;17.95;10.63;;;15.30;74.30;;;;;;5064422;28;20094;-73
2021/06/23 06:58:37;;;;;;;17.98;9.75;;;15.40;73.70;;;;;;5062633;28;20382;-74
2021/06/23 07:01:03;;;;;;;16.98;9.95;;;15.50;71.90;;;;;;5060420;28;20047;-75
2021/06/23 07:03:29;;;;;;;16.92;10.65;;;15.40;71.60;;;;;;5064687;28;20036;-74
2021/06/23 07:05:55;;;;;;;13.93;9.48;;;15.40;72.40;;;;;;5064220;28;20036;-76
2021/06/23 07:08:21;;;;;;;15.93;10.57;;;15.80;70.70;;;;;;5043929;28;20381;-72
2021/06/23 07:10:46;;;;;;;16.67;10.18;;;15.90;69.80;;;;;;5061037;28;20475;-81
2021/06/23 07:13:12;;;;;;;17.40;10.23;;;15.70;71.50;;;;;;5062971;28;20033;-78
2021/06/23 07:15:37;;;;;;;17.85;10.90;;;15.60;70.90;;;;;;5063602;28;20429;-73
2021/06/23 07:18:04;;;;;;;25.38;12.15;;;15.50;72.30;;;;;;5065716;28;20040;-74
2021/06/23 07:20:29;;;;;;;18.92;12.18;;;15.70;71.00;;;;;;5067246;28;20031;-73
2021/06/23 07:22:55;;;;;;;21.33;13.32;;;15.70;70.80;;;;;;5063890;28;20029;-73
2021/06/23 07:25:21;;;;;;;26.73;14.32;;;15.90;70.30;;;;;;5065933;28;20139;-74
2021/06/23 07:27:47;;;;;;;27.67;15.65;;;15.80;70.00;;;;;;5066658;28;20037;-80
2021/06/23 07:30:13;;;;;;;28.92;15.88;;;15.90;70.20;;;;;;5065120;28;20044;-73
2021/06/23 07:37:54;;;;;;;33.55;18.17;;;15.90;70.40;;;;;;5064510;28;20028;-73
2021/06/23 07:40:28;;;;;;;34.08;19.02;;;16.10;70.20;;;;;;5067229;28;20036;-72
2021/06/23 07:42:54;;;;;;;33.70;17.80;;;16.10;69.40;;;;;;5061139;28;20483;-73
2021/06/23 07:45:19;;;;;;;36.88;18.83;;;16.00;69.50;;;;;;5065214;28;20037;-72
2021/06/23 07:47:45;;;;;;;46.03;22.15;;;16.00;71.20;;;;;;5064136;28;20028;-77
2021/06/23 07:50:12;;;;;;;55.72;25.95;;;16.30;69.50;;;;;;5064112;28;20443;-79
2021/06/23 07:52:52;;;;;;;51.55;24.73;;;16.20;69.10;;;;;;5046779;28;20056;-72
2021/06/23 08:09:25;;;;;;;18.08;10.52;;;16.30;68.10;;;;;;5061103;28;20048;-74
2021/06/23 08:11:53;;;;;;;25.25;14.80;;;16.60;68.00;;;;;;5061661;28;20120;-73
2021/06/23 08:14:19;;;;;;;22.95;13.63;;;16.50;68.20;;;;;;5065600;28;20049;-72
2021/06/23 08:16:46;;;;;;;23.23;13.20;;;16.40;68.40;;;;;;5057924;28;20053;-73
2021/06/23 08:19:11;;;;;;;24.30;13.43;;;16.20;68.50;;;;;;5065884;28;20479;-75
2021/06/23 08:21:37;;;;;;;33.08;18.85;;;16.20;69.20;;;;;;5045265;28;20064;-74
2021/06/23 08:24:03;;;;;;;36.38;19.58;;;16.40;70.00;;;;;;5062264;28;20438;-73
2021/06/23 08:26:29;;;;;;;25.60;14.88;;;16.40;68.50;;;;;;5039683;28;20067;-74
2021/06/23 08:28:55;;;;;;;34.78;17.77;;;16.50;68.60;;;;;;5064946;28;20124;-72
2021/06/23 08:31:20;;;;;;;27.33;14.40;;;16.40;68.30;;;;;;5065500;28;20108;-74
2021/06/23 08:33:46;;;;;;;21.65;13.70;;;16.40;68.70;;;;;;5059112;28;20052;-76
2021/06/23 08:36:12;;;;;;;26.73;18.15;;;16.60;68.80;;;;;;5055281;28;20021;-73
2021/06/23 08:38:37;;;;;;;31.50;19.02;;;16.50;67.50;;;;;;5045665;28;20104;-73
2021/06/23 08:41:25;;;;;;;32.70;17.00;;;16.30;68.10;;;;;;5061017;28;20438;-74
2021/06/23 08:43:50;;;;;;;32.35;18.05;;;16.30;68.20;;;;;;5060524;28;20032;-77
2021/06/23 08:46:30;;;;;;;24.75;15.90;;;16.40;69.40;;;;;;5061162;28;20060;-85
2021/06/23 08:49:16;;;;;;;26.20;14.82;;;16.50;67.80;;;;;;5058829;28;20093;-75
2021/06/23 08:51:42;;;;;;;26.88;14.82;;;16.50;67.70;;;;;;5063116;28;20082;-75
2021/06/23 08:54:08;;;;;;;27.58;13.65;;;16.60;67.70;;;;;;5058617;28;20052;-79
2021/06/23 08:56:34;;;;;;;24.67;12.57;;;16.50;67.70;;;;;;5064214;28;20043;-73
2021/06/23 08:59:02;;;;;;;25.80;12.65;;;16.50;66.70;;;;;;5059432;28;20037;-76
2021/06/23 09:01:30;;;;;;;27.63;12.23;;;16.40;65.50;;;;;;5047866;28;20040;-74
2021/06/23 09:04:11;;;;;;;22.15;9.02;;;16.30;65.90;;;;;;5063926;28;20083;-73
2021/06/23 09:06:49;;;;;;;26.20;10.05;;;16.40;64.80;;;;;;5060411;28;20037;-76
2021/06/23 09:09:30;;;;;;;24.27;11.93;;;16.60;63.90;;;;;;5062287;28;20043;-75
2021/06/23 09:12:00;;;;;;;23.73;10.45;;;16.80;64.00;;;;;;5065953;28;20391;-73
2021/06/23 09:14:30;;;;;;;18.60;7.43;;;16.90;63.70;;;;;;5062166;28;20483;-72
2021/06/23 09:17:16;;;;;;;14.90;6.28;;;17.10;62.30;;;;;;5065927;28;20040;-73
2021/06/23 09:19:51;;;;;;;16.75;8.60;;;17.40;63.40;;;;;;5055413;28;20032;-72
2021/06/23 09:22:40;;;;;;;18.63;7.85;;;17.20;62.00;;;;;;5044067;28;20041;-73
2021/06/23 09:25:12;;;;;;;20.17;8.85;;;17.20;63.20;;;;;;5046362;28;20529;-73
2021/06/23 09:27:50;;;;;;;18.33;8.48;;;16.90;62.80;;;;;;5066133;28;20131;-73
2021/06/23 09:30:37;;;;;;;16.35;7.75;;;17.10;62.80;;;;;;5066646;28;20079;-76
2021/06/23 09:33:14;;;;;;;12.77;6.47;;;17.10;62.40;;;;;;5061467;28;20059;-73
2021/06/23 09:35:46;;;;;;;14.93;8.52;;;17.00;62.40;;;;;;5063045;28;20047;-74
2021/06/23 09:38:33;;;;;;;19.48;10.95;;;17.10;62.20;;;;;;5068536;28;20044;-80
2021/06/23 09:41:00;;;;;;;26.55;12.45;;;17.10;63.00;;;;;;5060089;28;20032;-83
2021/06/23 09:43:42;;;;;;;26.38;13.85;;;17.20;63.20;;;;;;5064371;28;20087;-75
2021/06/23 09:46:22;;;;;;;16.83;9.93;;;17.40;62.90;;;;;;5042815;28;20097;-76
2021/06/23 09:48:50;;;;;;;17.52;7.85;;;17.60;61.90;;;;;;5065361;28;20032;-74
2021/06/23 09:51:19;;;;;;;15.95;7.93;;;17.10;62.30;;;;;;5067550;28;20052;-74
2021/06/23 09:53:45;;;;;;;16.40;7.60;;;17.10;62.40;;;;;;5064061;28;20112;-74
2021/06/23 09:56:30;;;;;;;14.73;7.28;;;17.00;62.70;;;;;;5064764;28;20406;-73
2021/06/23 09:58:57;;;;;;;13.55;7.80;;;17.10;63.50;;;;;;5063831;28;20036;-73
2021/06/23 10:01:24;;;;;;;17.77;10.45;;;17.40;62.90;;;;;;5065576;28;20028;-74
2021/06/23 10:03:57;;;;;;;20.15;10.75;;;17.40;62.20;;;;;;5061305;28;20063;-70
2021/06/23 10:06:27;;;;;;;17.98;9.02;;;17.40;62.60;;;;;;5043823;28;20040;-69
2021/06/23 10:09:21;;;;;;;16.70;9.77;;;17.10;63.70;;;;;;5064259;28;20490;-71
2021/06/23 10:11:50;;;;;;;18.70;10.32;;;17.30;63.20;;;;;;5063662;28;20491;-70
2021/06/23 10:14:16;;;;;;;14.25;8.63;;;17.20;64.30;;;;;;5063218;28;20045;-71
2021/06/23 10:16:42;;;;;;;16.08;8.82;;;17.50;63.30;;;;;;5067152;28;20071;-69
2021/06/23 10:19:09;;;;;;;14.45;8.50;;;17.60;60.80;;;;;;5064136;28;20510;-72
2021/06/23 10:21:39;;;;;;;18.10;8.57;;;17.10;62.60;;;;;;5064570;28;20043;-70
2021/06/23 10:24:08;;;;;;;16.08;7.30;;;17.30;63.00;;;;;;5035598;28;20386;-70
2021/06/23 10:26:36;;;;;;;17.13;7.97;;;17.60;62.70;;;;;;5052837;28;20029;-70
2021/06/23 10:29:02;;;;;;;13.05;7.22;;;17.70;62.20;;;;;;5058045;28;20021;-72
2021/06/23 10:31:28;;;;;;;12.70;6.57;;;17.70;61.30;;;;;;5042418;28;20033;-70
2021/06/23 10:33:54;;;;;;;18.63;7.28;;;17.50;62.50;;;;;;5057735;28;20483;-72
2021/06/23 10:36:22;;;;;;;13.18;6.85;;;17.50;64.00;;;;;;5064433;28;20481;-69
2021/06/23 10:38:50;;;;;;;12.13;6.53;;;17.60;61.70;;;;;;5063435;28;20028;-71
2021/06/23 10:41:16;;;;;;;11.65;5.97;;;17.60;61.50;;;;;;5064737;28;20042;-70
2021/06/23 10:43:43;;;;;;;12.70;5.30;;;17.70;61.40;;;;;;5066879;28;20029;-71
2021/06/23 10:46:10;;;;;;;13.52;5.78;;;17.80;61.10;;;;;;5047434;28;20075;-70
2021/06/23 10:48:57;;;;;;;9.98;5.05;;;17.90;61.10;;;;;;5063630;28;20096;-70
2021/06/23 10:51:27;;;;;;;14.57;6.38;;;17.90;61.60;;;;;;5062765;28;20067;-73
2021/06/23 10:53:53;;;;;;;14.32;7.10;;;17.90;61.10;;;;;;5064972;28;20070;-72
2021/06/23 10:56:44;;;;;;;15.05;8.05;;;18.10;60.80;;;;;;5065298;28;20063;-69
2021/06/23 10:59:39;;;;;;;17.58;6.45;;;18.10;60.40;;;;;;5062979;28;20030;-70
2021/06/23 11:02:10;;;;;;;14.52;7.30;;;18.10;61.20;;;;;;5038122;28;20108;-70
2021/06/23 11:05:00;;;;;;;16.00;7.68;;;18.10;60.50;;;;;;5066264;28;20295;-70
2021/06/23 11:07:43;;;;;;;14.93;7.65;;;18.10;59.70;;;;;;5063456;28;20033;-69
2021/06/23 11:10:12;;;;;;;12.57;6.50;;;18.10;60.20;;;;;;5062954;28;20174;-71
2021/06/23 11:12:47;;;;;;;13.40;6.65;;;18.20;60.60;;;;;;5046941;28;20068;-70
2021/06/23 11:15:14;;;;;;;12.15;6.20;;;18.20;59.30;;;;;;5045122;28;20048;-72
2021/06/23 11:17:40;;;;;;;11.40;5.90;;;17.70;62.20;;;;;;5042616;28;20052;-71
2021/06/23 11:20:25;;;;;;;12.05;6.57;;;18.00;62.00;;;;;;5059336;28;20422;-73
2021/06/23 11:22:52;;;;;;;17.05;6.88;;;18.40;61.50;;;;;;5059892;28;20051;-69
2021/06/23 11:25:32;;;;;;;12.55;6.28;;;18.50;60.30;;;;;;5061040;28;20546;-70
2021/06/23 11:28:11;;;;;;;12.55;6.35;;;18.50;59.10;;;;;;5064465;28;20468;-71
2021/06/23 11:30:51;;;;;;;11.65;6.13;;;18.20;60.10;;;;;;5045529;28;20496;-71
2021/06/23 11:33:29;;;;;;;11.73;5.80;;;18.10;59.30;;;;;;5043293;28;20053;-76
2021/06/23 11:36:03;;;;;;;16.25;5.95;;;18.10;59.80;;;;;;5063248;28;20063;-70
2021/06/23 11:38:29;;;;;;;12.65;6.13;;;18.30;60.90;;;;;;5060427;28;21272;-71
2021/06/23 11:40:56;;;;;;;11.73;5.70;;;18.40;59.50;;;;;;5061379;28;20033;-70
2021/06/23 11:43:24;;;;;;;11.70;5.53;;;18.50;60.10;;;;;;5061350;28;20033;-70
2021/06/23 11:45:49;;;;;;;11.48;5.85;;;18.10;60.30;;;;;;5062819;28;20047;-69
2021/06/23 11:48:17;;;;;;;10.85;5.75;;;18.00;60.50;;;;;;5065374;28;20033;-72
2021/06/23 11:50:43;;;;;;;13.77;5.95;;;18.00;60.70;;;;;;5063355;28;20471;-71
2021/06/23 11:53:11;;;;;;;11.50;6.05;;;18.00;60.50;;;;;;5064972;28;20036;-71
2021/06/23 11:55:39;;;;;;;14.93;6.45;;;18.00;61.10;;;;;;5043503;28;20033;-71
2021/06/23 11:58:05;;;;;;;17.05;5.88;;;18.10;60.30;;;;;;5060360;28;20047;-69
2021/06/23 12:00:32;;;;;;;12.20;5.97;;;18.20;61.00;;;;;;5061854;28;20704;-69
2021/06/23 12:02:59;;;;;;;10.35;5.90;;;18.30;59.90;;;;;;5059208;28;20033;-71
2021/06/23 12:05:29;;;;;;;19.27;6.45;;;18.30;59.70;;;;;;5062841;28;20040;-70
2021/06/23 12:07:55;;;;;;;11.23;5.60;;;18.50;58.30;;;;;;5046552;28;20420;-70
2021/06/23 12:10:22;;;;;;;15.98;6.10;;;18.50;58.80;;;;;;5065960;28;20028;-70
2021/06/23 12:12:49;;;;;;;15.15;5.72;;;18.40;58.20;;;;;;5062398;28;20080;-73
2021/06/23 12:15:17;;;;;;;14.95;6.03;;;18.50;58.00;;;;;;5058984;28;20598;-71
2021/06/23 12:17:43;;;;;;;16.15;6.32;;;18.20;58.30;;;;;;5064116;28;20141;-73
2021/06/23 12:20:10;;;;;;;13.15;5.50;;;18.20;59.30;;;;;;5060856;28;20056;-71
2021/06/23 12:22:38;;;;;;;17.65;5.80;;;18.30;59.60;;;;;;5047660;28;20083;-72
2021/06/23 12:25:06;;;;;;;11.25;4.88;;;18.40;59.40;;;;;;5061149;28;20460;-76
2021/06/23 12:27:32;;;;;;;12.23;5.10;;;18.40;59.60;;;;;;5061443;28;20435;-71
2021/06/23 12:29:57;;;;;;;11.35;4.80;;;18.50;58.40;;;;;;5044114;28;20028;-72
2021/06/23 12:32:23;;;;;;;11.88;5.72;;;18.60;59.50;;;;;;5052666;28;20489;-71
2021/06/23 12:34:49;;;;;;;14.02;5.38;;;18.80;57.10;;;;;;5066468;28;20491;-72
2021/06/23 12:37:15;;;;;;;9.20;4.80;;;18.60;58.60;;;;;;5045126;28;20356;-71
2021/06/23 12:39:41;;;;;;;12.25;5.28;;;18.50;56.90;;;;;;5067197;28;20039;-74
2021/06/23 12:42:07;;;;;;;9.80;4.78;;;18.40;57.40;;;;;;5064610;28;20032;-71
2021/06/23 12:44:32;;;;;;;12.32;5.40;;;18.40;60.10;;;;;;5061466;28;20035;-71
2021/06/23 12:46:58;;;;;;;13.25;5.03;;;18.50;59.00;;;;;;5066682;28;20090;-70
2021/06/23 12:49:24;;;;;;;11.25;5.18;;;18.70;60.00;;;;;;5066882;28;20032;-70
2021/06/23 12:51:50;;;;;;;14.52;5.35;;;19.00;60.20;;;;;;5069993;28;20043;-72
2021/06/23 12:54:16;;;;;;;17.20;5.35;;;18.90;58.00;;;;;;5069224;28;20491;-75
2021/06/23 12:56:42;;;;;;;10.65;4.22;;;18.80;58.70;;;;;;5068909;28;20035;-71
2021/06/23 12:59:08;;;;;;;10.85;4.10;;;18.90;58.80;;;;;;5070384;28;20029;-72
2021/06/23 13:01:34;;;;;;;8.50;4.75;;;18.80;59.40;;;;;;5050192;28;20048;-71